sensor_id;sensor_type;location;lat;lon;timestamp;P1;durP1;ratioP1;P2;durP2;ratioP2
13028;SDS011;6581;42.662;23.402;2022-10-20T00:00:24;27.15;;;24.13;;
13028;SDS011;6581;42.662;23.402;2022-10-20T00:02:51;25.13;;;22.42;;
13028;SDS011;6581;42.662;23.402;2022-10-20T00:05:18;27.77;;;24.23;;
13028;SDS011;6581;42.662;23.402;2022-10-20T00:07:45;26.80;;;23.90;;
13028;SDS011;6581;42.662;23.402;2022-10-20T00:10:13;27.67;;;24.02;;
13028;SDS011;6581;42.662;23.402;2022-10-20T00:12:40;28.13;;;25.00;;
13028;SDS011;6581;42.662;23.402;2022-10-20T00:15:07;27.80;;;24.75;;
13028;SDS011;6581;42.662;23.402;2022-10-20T00:17:36;30.17;;;25.10;;
13028;SDS011;6581;42.662;23.402;2022-10-20T00:20:04;28.30;;;25.30;;
13028;SDS011;6581;42.662;23.402;2022-10-20T00:22:32;29.52;;;23.80;;
13028;SDS011;6581;42.662;23.402;2022-10-20T00:24:59;27.73;;;24.85;;
13028;SDS011;6581;42.662;23.402;2022-10-20T00:27:26;27.55;;;24.27;;
13028;SDS011;6581;42.662;23.402;2022-10-20T00:29:54;26.73;;;23.95;;
13028;SDS011;6581;42.662;23.402;2022-10-20T00:32:21;24.10;;;21.70;;
13028;SDS011;6581;42.662;23.402;2022-10-20T00:34:49;24.63;;;22.00;;
13028;SDS011;6581;42.662;23.402;2022-10-20T00:37:16;20.67;;;18.17;;
13028;SDS011;6581;42.662;23.402;2022-10-20T00:39:43;23.15;;;20.55;;
13028;SDS011;6581;42.662;23.402;2022-10-20T00:42:13;23.58;;;20.48;;
13028;SDS011;6581;42.662;23.402;2022-10-20T00:44:48;24.23;;;20.25;;
13028;SDS011;6581;42.662;23.402;2022-10-20T00:47:18;21.77;;;19.60;;
13028;SDS011;6581;42.662;23.402;2022-10-20T00:49:47;21.35;;;18.98;;
13028;SDS011;6581;42.662;23.402;2022-10-20T00:52:17;19.30;;;17.27;;
13028;SDS011;6581;42.662;23.402;2022-10-20T00:54:47;19.35;;;17.45;;
13028;SDS011;6581;42.662;23.402;2022-10-20T00:57:15;20.20;;;17.95;;
13028;SDS011;6581;42.662;23.402;2022-10-20T00:59:42;18.17;;;16.38;;
13028;SDS011;6581;42.662;23.402;2022-10-20T01:02:10;18.40;;;16.48;;
13028;SDS011;6581;42.662;23.402;2022-10-20T01:04:37;18.17;;;16.38;;
13028;SDS011;6581;42.662;23.402;2022-10-20T01:07:30;19.08;;;15.95;;
13028;SDS011;6581;42.662;23.402;2022-10-20T01:09:58;17.70;;;15.85;;
13028;SDS011;6581;42.662;23.402;2022-10-20T01:12:27;17.30;;;15.48;;
13028;SDS011;6581;42.662;23.402;2022-10-20T01:15:03;16.83;;;14.88;;
13028;SDS011;6581;42.662;23.402;2022-10-20T01:17:38;16.70;;;15.05;;
13028;SDS011;6581;42.662;23.402;2022-10-20T01:26:22;15.93;;;14.32;;
13028;SDS011;6581;42.662;23.402;2022-10-20T01:29:20;17.48;;;14.57;;
13028;SDS011;6581;42.662;23.402;2022-10-20T01:31:56;15.48;;;13.98;;
13028;SDS011;6581;42.662;23.402;2022-10-20T01:34:31;18.05;;;13.63;;
13028;SDS011;6581;42.662;23.402;2022-10-20T01:37:05;15.90;;;14.20;;
13028;SDS011;6581;42.662;23.402;2022-10-20T01:39:39;15.55;;;13.95;;
13028;SDS011;6581;42.662;23.402;2022-10-20T01:42:10;15.57;;;13.95;;
13028;SDS011;6581;42.662;23.402;2022-10-20T01:44:41;14.45;;;12.82;;
13028;SDS011;6581;42.662;23.402;2022-10-20T01:47:11;14.55;;;13.15;;
13028;SDS011;6581;42.662;23.402;2022-10-20T01:49:41;13.85;;;12.40;;
13028;SDS011;6581;42.662;23.402;2022-10-20T01:52:10;14.65;;;13.15;;
13028;SDS011;6581;42.662;23.402;2022-10-20T01:54:38;14.93;;;13.35;;
13028;SDS011;6581;42.662;23.402;2022-10-20T01:57:09;15.35;;;13.75;;
13028;SDS011;6581;42.662;23.402;2022-10-20T01:59:47;17.55;;;13.82;;
13028;SDS011;6581;42.662;23.402;2022-10-20T02:02:39;15.18;;;13.23;;
13028;SDS011;6581;42.662;23.402;2022-10-20T02:05:34;14.82;;;12.85;;
13028;SDS011;6581;42.662;23.402;2022-10-20T02:08:10;15.10;;;13.60;;
13028;SDS011;6581;42.662;23.402;2022-10-20T02:10:42;15.43;;;13.50;;
13028;SDS011;6581;42.662;23.402;2022-10-20T02:13:21;16.08;;;14.38;;
13028;SDS011;6581;42.662;23.402;2022-10-20T02:15:52;15.07;;;13.60;;
13028;SDS011;6581;42.662;23.402;2022-10-20T02:18:26;15.50;;;13.90;;
13028;SDS011;6581;42.662;23.402;2022-10-20T02:20:59;14.73;;;13.18;;
13028;SDS011;6581;42.662;23.402;2022-10-20T02:23:29;16.50;;;14.73;;
13028;SDS011;6581;42.662;23.402;2022-10-20T02:26:05;16.25;;;14.55;;
13028;SDS011;6581;42.662;23.402;2022-10-20T02:28:36;16.38;;;14.50;;
13028;SDS011;6581;42.662;23.402;2022-10-20T02:31:10;16.50;;;14.82;;
13028;SDS011;6581;42.662;23.402;2022-10-20T02:33:39;16.02;;;14.38;;
13028;SDS011;6581;42.662;23.402;2022-10-20T02:36:15;17.05;;;15.32;;
13028;SDS011;6581;42.662;23.402;2022-10-20T02:38:44;16.35;;;14.75;;
13028;SDS011;6581;42.662;23.402;2022-10-20T02:41:11;16.55;;;14.90;;
13028;SDS011;6581;42.662;23.402;2022-10-20T02:43:38;17.45;;;15.50;;
13028;SDS011;6581;42.662;23.402;2022-10-20T02:46:06;19.02;;;15.60;;
13028;SDS011;6581;42.662;23.402;2022-10-20T02:48:34;17.05;;;15.35;;
13028;SDS011;6581;42.662;23.402;2022-10-20T02:51:02;16.63;;;14.95;;
13028;SDS011;6581;42.662;23.402;2022-10-20T02:53:30;17.77;;;15.07;;
13028;SDS011;6581;42.662;23.402;2022-10-20T02:55:57;16.83;;;15.10;;
13028;SDS011;6581;42.662;23.402;2022-10-20T02:58:24;17.35;;;15.15;;
13028;SDS011;6581;42.662;23.402;2022-10-20T03:00:52;16.40;;;14.80;;
13028;SDS011;6581;42.662;23.402;2022-10-20T03:03:19;15.85;;;14.25;;
13028;SDS011;6581;42.662;23.402;2022-10-20T03:05:47;15.90;;;14.20;;
13028;SDS011;6581;42.662;23.402;2022-10-20T03:08:15;15.15;;;13.57;;
13028;SDS011;6581;42.662;23.402;2022-10-20T03:10:42;16.52;;;14.68;;
13028;SDS011;6581;42.662;23.402;2022-10-20T03:13:09;16.42;;;14.30;;
13028;SDS011;6581;42.662;23.402;2022-10-20T03:15:40;16.38;;;14.68;;
13028;SDS011;6581;42.662;23.402;2022-10-20T03:18:08;15.85;;;14.25;;
13028;SDS011;6581;42.662;23.402;2022-10-20T03:20:36;16.00;;;14.00;;
13028;SDS011;6581;42.662;23.402;2022-10-20T03:23:04;15.63;;;14.07;;
13028;SDS011;6581;42.662;23.402;2022-10-20T03:25:31;15.32;;;13.73;;
13028;SDS011;6581;42.662;23.402;2022-10-20T03:27:59;18.08;;;13.68;;
13028;SDS011;6581;42.662;23.402;2022-10-20T03:33:18;16.73;;;14.40;;
13028;SDS011;6581;42.662;23.402;2022-10-20T03:35:45;18.00;;;14.13;;
13028;SDS011;6581;42.662;23.402;2022-10-20T03:38:14;16.52;;;14.90;;
13028;SDS011;6581;42.662;23.402;2022-10-20T03:40:41;16.73;;;14.77;;
13028;SDS011;6581;42.662;23.402;2022-10-20T03:43:08;19.25;;;15.23;;
13028;SDS011;6581;42.662;23.402;2022-10-20T03:45:36;17.20;;;15.20;;
13028;SDS011;6581;42.662;23.402;2022-10-20T03:48:03;17.10;;;15.40;;
13028;SDS011;6581;42.662;23.402;2022-10-20T03:50:31;17.08;;;15.43;;
13028;SDS011;6581;42.662;23.402;2022-10-20T03:52:58;18.02;;;15.75;;
13028;SDS011;6581;42.662;23.402;2022-10-20T03:55:27;15.55;;;13.93;;
13028;SDS011;6581;42.662;23.402;2022-10-20T03:57:54;17.45;;;14.63;;
13028;SDS011;6581;42.662;23.402;2022-10-20T04:00:21;16.55;;;14.80;;
13028;SDS011;6581;42.662;23.402;2022-10-20T04:02:48;17.58;;;14.85;;
13028;SDS011;6581;42.662;23.402;2022-10-20T04:05:16;17.77;;;14.95;;
13028;SDS011;6581;42.662;23.402;2022-10-20T04:07:45;17.42;;;14.55;;
13028;SDS011;6581;42.662;23.402;2022-10-20T04:10:12;16.73;;;14.43;;
13028;SDS011;6581;42.662;23.402;2022-10-20T04:12:42;16.50;;;14.60;;
13028;SDS011;6581;42.662;23.402;2022-10-20T04:18:02;16.35;;;14.65;;
13028;SDS011;6581;42.662;23.402;2022-10-20T04:20:29;16.48;;;14.75;;
13028;SDS011;6581;42.662;23.402;2022-10-20T04:22:56;16.27;;;14.48;;
13028;SDS011;6581;42.662;23.402;2022-10-20T04:25:23;17.50;;;14.45;;
13028;SDS011;6581;42.662;23.402;2022-10-20T04:27:52;19.88;;;15.00;;
13028;SDS011;6581;42.662;23.402;2022-10-20T04:30:19;16.48;;;14.70;;
13028;SDS011;6581;42.662;23.402;2022-10-20T04:32:46;18.20;;;15.43;;
13028;SDS011;6581;42.662;23.402;2022-10-20T04:35:13;17.92;;;15.02;;
13028;SDS011;6581;42.662;23.402;2022-10-20T04:37:41;31.75;;;16.13;;
13028;SDS011;6581;42.662;23.402;2022-10-20T04:40:09;17.33;;;14.85;;
13028;SDS011;6581;42.662;23.402;2022-10-20T04:42:37;18.00;;;15.55;;
13028;SDS011;6581;42.662;23.402;2022-10-20T04:45:07;18.95;;;15.38;;
13028;SDS011;6581;42.662;23.402;2022-10-20T04:47:35;17.83;;;15.10;;
13028;SDS011;6581;42.662;23.402;2022-10-20T04:50:02;17.08;;;14.60;;
13028;SDS011;6581;42.662;23.402;2022-10-20T04:52:30;18.15;;;15.07;;
13028;SDS011;6581;42.662;23.402;2022-10-20T04:54:57;19.67;;;15.93;;
13028;SDS011;6581;42.662;23.402;2022-10-20T04:57:25;19.95;;;15.77;;
13028;SDS011;6581;42.662;23.402;2022-10-20T04:59:52;17.95;;;16.05;;
13028;SDS011;6581;42.662;23.402;2022-10-20T05:02:21;18.45;;;15.35;;
13028;SDS011;6581;42.662;23.402;2022-10-20T05:04:49;19.67;;;15.55;;
13028;SDS011;6581;42.662;23.402;2022-10-20T05:07:17;18.30;;;14.80;;
13028;SDS011;6581;42.662;23.402;2022-10-20T05:09:44;17.75;;;15.18;;
13028;SDS011;6581;42.662;23.402;2022-10-20T05:12:11;18.95;;;15.27;;
13028;SDS011;6581;42.662;23.402;2022-10-20T05:14:38;19.20;;;15.27;;
13028;SDS011;6581;42.662;23.402;2022-10-20T05:17:05;16.63;;;14.55;;
13028;SDS011;6581;42.662;23.402;2022-10-20T05:19:34;16.30;;;14.35;;
13028;SDS011;6581;42.662;23.402;2022-10-20T05:22:01;16.50;;;14.88;;
13028;SDS011;6581;42.662;23.402;2022-10-20T05:24:28;16.17;;;14.48;;
13028;SDS011;6581;42.662;23.402;2022-10-20T05:26:55;16.33;;;14.63;;
13028;SDS011;6581;42.662;23.402;2022-10-20T05:29:22;17.85;;;14.10;;
13028;SDS011;6581;42.662;23.402;2022-10-20T05:31:50;18.55;;;15.23;;
13028;SDS011;6581;42.662;23.402;2022-10-20T05:34:17;17.02;;;15.32;;
13028;SDS011;6581;42.662;23.402;2022-10-20T05:36:45;16.25;;;14.52;;
13028;SDS011;6581;42.662;23.402;2022-10-20T05:39:12;16.55;;;14.60;;
13028;SDS011;6581;42.662;23.402;2022-10-20T05:41:39;17.92;;;15.07;;
13028;SDS011;6581;42.662;23.402;2022-10-20T05:44:07;21.23;;;15.65;;
13028;SDS011;6581;42.662;23.402;2022-10-20T05:46:37;16.85;;;14.23;;
13028;SDS011;6581;42.662;23.402;2022-10-20T05:49:06;17.13;;;14.13;;
13028;SDS011;6581;42.662;23.402;2022-10-20T05:51:36;16.10;;;14.40;;
13028;SDS011;6581;42.662;23.402;2022-10-20T05:54:05;18.85;;;14.80;;
13028;SDS011;6581;42.662;23.402;2022-10-20T05:56:32;16.73;;;14.98;;
13028;SDS011;6581;42.662;23.402;2022-10-20T05:58:59;15.95;;;14.23;;
13028;SDS011;6581;42.662;23.402;2022-10-20T06:01:51;17.55;;;15.32;;
13028;SDS011;6581;42.662;23.402;2022-10-20T06:04:19;18.80;;;15.20;;
13028;SDS011;6581;42.662;23.402;2022-10-20T06:06:48;16.75;;;14.95;;
13028;SDS011;6581;42.662;23.402;2022-10-20T06:09:18;19.38;;;15.55;;
13028;SDS011;6581;42.662;23.402;2022-10-20T06:11:46;17.02;;;14.80;;
13028;SDS011;6581;42.662;23.402;2022-10-20T06:14:14;16.77;;;15.00;;
13028;SDS011;6581;42.662;23.402;2022-10-20T06:16:41;18.88;;;15.68;;
13028;SDS011;6581;42.662;23.402;2022-10-20T06:19:09;20.23;;;16.60;;
13028;SDS011;6581;42.662;23.402;2022-10-20T06:21:36;19.15;;;15.68;;
13028;SDS011;6581;42.662;23.402;2022-10-20T06:24:04;17.45;;;15.25;;
13028;SDS011;6581;42.662;23.402;2022-10-20T06:26:34;22.13;;;17.00;;
13028;SDS011;6581;42.662;23.402;2022-10-20T06:29:02;19.73;;;17.15;;
13028;SDS011;6581;42.662;23.402;2022-10-20T06:31:32;19.48;;;17.33;;
13028;SDS011;6581;42.662;23.402;2022-10-20T06:34:00;19.08;;;16.80;;
13028;SDS011;6581;42.662;23.402;2022-10-20T06:36:32;22.13;;;17.40;;
13028;SDS011;6581;42.662;23.402;2022-10-20T06:39:00;20.23;;;17.50;;
13028;SDS011;6581;42.662;23.402;2022-10-20T06:41:29;19.40;;;17.30;;
13028;SDS011;6581;42.662;23.402;2022-10-20T06:43:58;20.50;;;17.40;;
13028;SDS011;6581;42.662;23.402;2022-10-20T06:46:26;23.65;;;18.55;;
13028;SDS011;6581;42.662;23.402;2022-10-20T06:48:55;21.00;;;18.58;;
13028;SDS011;6581;42.662;23.402;2022-10-20T06:51:22;23.00;;;18.52;;
13028;SDS011;6581;42.662;23.402;2022-10-20T06:53:50;21.05;;;18.10;;
13028;SDS011;6581;42.662;23.402;2022-10-20T06:56:18;21.58;;;18.15;;
13028;SDS011;6581;42.662;23.402;2022-10-20T06:58:47;23.55;;;19.17;;
13028;SDS011;6581;42.662;23.402;2022-10-20T07:01:18;23.65;;;19.48;;
13028;SDS011;6581;42.662;23.402;2022-10-20T07:03:47;21.25;;;18.92;;
13028;SDS011;6581;42.662;23.402;2022-10-20T07:06:16;20.60;;;18.30;;
13028;SDS011;6581;42.662;23.402;2022-10-20T07:08:45;20.60;;;17.92;;
13028;SDS011;6581;42.662;23.402;2022-10-20T07:11:13;20.95;;;17.90;;
13028;SDS011;6581;42.662;23.402;2022-10-20T07:13:42;21.52;;;18.52;;
13028;SDS011;6581;42.662;23.402;2022-10-20T07:16:10;20.67;;;18.48;;
13028;SDS011;6581;42.662;23.402;2022-10-20T07:18:40;21.15;;;19.15;;
13028;SDS011;6581;42.662;23.402;2022-10-20T07:21:08;20.25;;;17.33;;
13028;SDS011;6581;42.662;23.402;2022-10-20T07:23:38;18.55;;;16.48;;
13028;SDS011;6581;42.662;23.402;2022-10-20T07:26:06;20.95;;;16.80;;
13028;SDS011;6581;42.662;23.402;2022-10-20T07:28:35;19.08;;;16.90;;
13028;SDS011;6581;42.662;23.402;2022-10-20T07:31:03;20.70;;;16.50;;
13028;SDS011;6581;42.662;23.402;2022-10-20T07:33:32;18.20;;;16.23;;
13028;SDS011;6581;42.662;23.402;2022-10-20T07:36:01;19.52;;;16.23;;
13028;SDS011;6581;42.662;23.402;2022-10-20T07:38:37;19.65;;;16.30;;
13028;SDS011;6581;42.662;23.402;2022-10-20T07:41:04;17.02;;;15.40;;
13028;SDS011;6581;42.662;23.402;2022-10-20T07:43:31;17.20;;;15.40;;
13028;SDS011;6581;42.662;23.402;2022-10-20T07:45:58;17.55;;;15.68;;
13028;SDS011;6581;42.662;23.402;2022-10-20T07:48:25;17.77;;;15.07;;
13028;SDS011;6581;42.662;23.402;2022-10-20T07:50:53;16.30;;;14.60;;
13028;SDS011;6581;42.662;23.402;2022-10-20T07:53:21;17.67;;;15.23;;
13028;SDS011;6581;42.662;23.402;2022-10-20T07:55:48;16.05;;;14.35;;
13028;SDS011;6581;42.662;23.402;2022-10-20T07:58:16;17.27;;;15.00;;
13028;SDS011;6581;42.662;23.402;2022-10-20T08:00:43;17.50;;;14.68;;
13028;SDS011;6581;42.662;23.402;2022-10-20T08:03:10;16.95;;;14.88;;
13028;SDS011;6581;42.662;23.402;2022-10-20T08:05:38;16.90;;;14.73;;
13028;SDS011;6581;42.662;23.402;2022-10-20T08:08:05;15.75;;;14.10;;
13028;SDS011;6581;42.662;23.402;2022-10-20T08:10:34;15.75;;;14.23;;
13028;SDS011;6581;42.662;23.402;2022-10-20T08:13:01;15.27;;;13.68;;
13028;SDS011;6581;42.662;23.402;2022-10-20T08:15:28;15.38;;;13.88;;
13028;SDS011;6581;42.662;23.402;2022-10-20T08:17:55;14.27;;;11.93;;
13028;SDS011;6581;42.662;23.402;2022-10-20T08:20:23;15.52;;;13.25;;
13028;SDS011;6581;42.662;23.402;2022-10-20T08:22:50;14.95;;;13.48;;
13028;SDS011;6581;42.662;23.402;2022-10-20T08:25:17;14.63;;;13.10;;
13028;SDS011;6581;42.662;23.402;2022-10-20T08:27:46;14.52;;;13.10;;
13028;SDS011;6581;42.662;23.402;2022-10-20T08:30:13;14.13;;;12.57;;
13028;SDS011;6581;42.662;23.402;2022-10-20T08:32:40;13.68;;;12.27;;
13028;SDS011;6581;42.662;23.402;2022-10-20T08:35:08;13.65;;;12.25;;
13028;SDS011;6581;42.662;23.402;2022-10-20T08:37:35;13.65;;;12.10;;
13028;SDS011;6581;42.662;23.402;2022-10-20T08:40:02;14.82;;;11.85;;
13028;SDS011;6581;42.662;23.402;2022-10-20T08:42:31;12.68;;;11.45;;
13028;SDS011;6581;42.662;23.402;2022-10-20T08:45:06;12.65;;;11.35;;
13028;SDS011;6581;42.662;23.402;2022-10-20T08:47:39;12.45;;;10.18;;
13028;SDS011;6581;42.662;23.402;2022-10-20T08:50:09;12.45;;;10.38;;
13028;SDS011;6581;42.662;23.402;2022-10-20T08:52:40;11.68;;;9.75;;
13028;SDS011;6581;42.662;23.402;2022-10-20T08:55:10;11.38;;;9.70;;
13028;SDS011;6581;42.662;23.402;2022-10-20T08:57:47;11.07;;;9.93;;
13028;SDS011;6581;42.662;23.402;2022-10-20T09:00:17;10.05;;;9.02;;
13028;SDS011;6581;42.662;23.402;2022-10-20T09:02:46;10.07;;;9.07;;
13028;SDS011;6581;42.662;23.402;2022-10-20T09:05:15;9.07;;;8.18;;
13028;SDS011;6581;42.662;23.402;2022-10-20T09:07:46;10.20;;;8.30;;
13028;SDS011;6581;42.662;23.402;2022-10-20T09:10:22;9.70;;;8.70;;
13028;SDS011;6581;42.662;23.402;2022-10-20T09:12:55;10.23;;;9.13;;
13028;SDS011;6581;42.662;23.402;2022-10-20T09:15:26;9.52;;;8.35;;
13028;SDS011;6581;42.662;23.402;2022-10-20T09:17:54;9.82;;;8.30;;
13028;SDS011;6581;42.662;23.402;2022-10-20T09:20:26;8.10;;;7.30;;
13028;SDS011;6581;42.662;23.402;2022-10-20T09:22:57;8.05;;;7.25;;
13028;SDS011;6581;42.662;23.402;2022-10-20T09:25:24;8.32;;;7.32;;
13028;SDS011;6581;42.662;23.402;2022-10-20T09:27:52;7.93;;;7.07;;
13028;SDS011;6581;42.662;23.402;2022-10-20T09:30:23;7.28;;;6.57;;
13028;SDS011;6581;42.662;23.402;2022-10-20T09:32:59;8.13;;;7.15;;
13028;SDS011;6581;42.662;23.402;2022-10-20T09:35:28;9.52;;;7.07;;
13028;SDS011;6581;42.662;23.402;2022-10-20T09:37:59;7.15;;;6.35;;
13028;SDS011;6581;42.662;23.402;2022-10-20T09:40:29;7.22;;;6.43;;
13028;SDS011;6581;42.662;23.402;2022-10-20T09:42:58;6.93;;;6.22;;
13028;SDS011;6581;42.662;23.402;2022-10-20T09:45:29;7.80;;;5.57;;
13028;SDS011;6581;42.662;23.402;2022-10-20T09:48:00;7.90;;;6.05;;
13028;SDS011;6581;42.662;23.402;2022-10-20T09:50:31;6.93;;;6.22;;
13028;SDS011;6581;42.662;23.402;2022-10-20T09:53:01;7.03;;;5.97;;
13028;SDS011;6581;42.662;23.402;2022-10-20T09:55:33;9.05;;;6.07;;
13028;SDS011;6581;42.662;23.402;2022-10-20T09:58:02;5.85;;;5.35;;
13028;SDS011;6581;42.662;23.402;2022-10-20T10:00:33;6.80;;;5.22;;
13028;SDS011;6581;42.662;23.402;2022-10-20T10:03:09;6.10;;;5.60;;
13028;SDS011;6581;42.662;23.402;2022-10-20T10:06:19;5.78;;;5.30;;
13028;SDS011;6581;42.662;23.402;2022-10-20T10:08:52;6.20;;;5.43;;
13028;SDS011;6581;42.662;23.402;2022-10-20T10:11:21;6.25;;;5.60;;
13028;SDS011;6581;42.662;23.402;2022-10-20T10:13:51;6.97;;;5.47;;
13028;SDS011;6581;42.662;23.402;2022-10-20T10:19:14;5.88;;;5.03;;
13028;SDS011;6581;42.662;23.402;2022-10-20T10:21:46;6.53;;;5.20;;
13028;SDS011;6581;42.662;23.402;2022-10-20T10:24:23;6.97;;;5.43;;
13028;SDS011;6581;42.662;23.402;2022-10-20T10:27:25;5.43;;;4.93;;
13028;SDS011;6581;42.662;23.402;2022-10-20T10:29:53;5.53;;;4.97;;
13028;SDS011;6581;42.662;23.402;2022-10-20T10:32:25;5.50;;;5.00;;
13028;SDS011;6581;42.662;23.402;2022-10-20T10:35:02;6.35;;;4.88;;
13028;SDS011;6581;42.662;23.402;2022-10-20T10:37:35;5.05;;;4.57;;
13028;SDS011;6581;42.662;23.402;2022-10-20T10:40:10;5.13;;;4.63;;
13028;SDS011;6581;42.662;23.402;2022-10-20T10:42:53;5.57;;;5.07;;
13028;SDS011;6581;42.662;23.402;2022-10-20T10:45:39;5.03;;;4.57;;
13028;SDS011;6581;42.662;23.402;2022-10-20T10:48:22;5.32;;;4.82;;
13028;SDS011;6581;42.662;23.402;2022-10-20T10:51:14;4.97;;;4.47;;
13028;SDS011;6581;42.662;23.402;2022-10-20T10:53:55;6.20;;;5.03;;
13028;SDS011;6581;42.662;23.402;2022-10-20T10:56:35;5.60;;;5.00;;
13028;SDS011;6581;42.662;23.402;2022-10-20T10:59:10;6.78;;;5.10;;
13028;SDS011;6581;42.662;23.402;2022-10-20T11:01:49;6.05;;;4.72;;
13028;SDS011;6581;42.662;23.402;2022-10-20T11:04:37;5.50;;;4.97;;
13028;SDS011;6581;42.662;23.402;2022-10-20T11:07:26;6.82;;;4.47;;
13028;SDS011;6581;42.662;23.402;2022-10-20T11:10:02;6.25;;;4.32;;
13028;SDS011;6581;42.662;23.402;2022-10-20T11:12:39;5.07;;;4.68;;
13028;SDS011;6581;42.662;23.402;2022-10-20T11:15:22;4.82;;;4.40;;
13028;SDS011;6581;42.662;23.402;2022-10-20T11:18:02;5.50;;;5.00;;
13028;SDS011;6581;42.662;23.402;2022-10-20T11:20:39;5.38;;;4.45;;
13028;SDS011;6581;42.662;23.402;2022-10-20T11:26:16;4.53;;;4.15;;
13028;SDS011;6581;42.662;23.402;2022-10-20T11:28:50;6.10;;;4.60;;
13028;SDS011;6581;42.662;23.402;2022-10-20T11:31:21;5.22;;;4.82;;
13028;SDS011;6581;42.662;23.402;2022-10-20T11:33:55;5.85;;;5.00;;
13028;SDS011;6581;42.662;23.402;2022-10-20T11:36:32;5.45;;;4.90;;
13028;SDS011;6581;42.662;23.402;2022-10-20T11:39:04;4.75;;;4.35;;
13028;SDS011;6581;42.662;23.402;2022-10-20T11:41:42;5.23;;;4.70;;
13028;SDS011;6581;42.662;23.402;2022-10-20T11:44:14;5.20;;;4.40;;
13028;SDS011;6581;42.662;23.402;2022-10-20T11:46:48;5.30;;;4.80;;
13028;SDS011;6581;42.662;23.402;2022-10-20T11:49:19;4.47;;;4.07;;
13028;SDS011;6581;42.662;23.402;2022-10-20T11:51:52;4.65;;;4.13;;
13028;SDS011;6581;42.662;23.402;2022-10-20T11:54:38;5.03;;;4.63;;
13028;SDS011;6581;42.662;23.402;2022-10-20T11:57:16;5.20;;;4.75;;
13028;SDS011;6581;42.662;23.402;2022-10-20T11:59:56;5.28;;;4.78;;
13028;SDS011;6581;42.662;23.402;2022-10-20T12:06:08;4.63;;;4.22;;
13028;SDS011;6581;42.662;23.402;2022-10-20T12:08:52;5.40;;;4.90;;
13028;SDS011;6581;42.662;23.402;2022-10-20T12:11:34;6.05;;;5.10;;
13028;SDS011;6581;42.662;23.402;2022-10-20T12:14:06;5.25;;;4.85;;
13028;SDS011;6581;42.662;23.402;2022-10-20T12:20:39;4.45;;;3.92;;
13028;SDS011;6581;42.662;23.402;2022-10-20T12:23:03;5.18;;;4.75;;
13028;SDS011;6581;42.662;23.402;2022-10-20T12:25:36;5.20;;;4.70;;
13028;SDS011;6581;42.662;23.402;2022-10-20T12:30:59;5.35;;;4.70;;
13028;SDS011;6581;42.662;23.402;2022-10-20T12:33:34;4.90;;;4.50;;
13028;SDS011;6581;42.662;23.402;2022-10-20T12:36:21;4.97;;;4.43;;
13028;SDS011;6581;42.662;23.402;2022-10-20T12:39:06;6.55;;;4.30;;
13028;SDS011;6581;42.662;23.402;2022-10-20T12:41:40;5.07;;;4.50;;
13028;SDS011;6581;42.662;23.402;2022-10-20T12:44:14;4.80;;;4.30;;
13028;SDS011;6581;42.662;23.402;2022-10-20T12:46:52;5.10;;;4.32;;
13028;SDS011;6581;42.662;23.402;2022-10-20T12:49:22;4.82;;;4.35;;
13028;SDS011;6581;42.662;23.402;2022-10-20T12:51:54;6.22;;;5.18;;
13028;SDS011;6581;42.662;23.402;2022-10-20T12:54:25;5.10;;;4.60;;
13028;SDS011;6581;42.662;23.402;2022-10-20T12:57:02;5.53;;;4.70;;
13028;SDS011;6581;42.662;23.402;2022-10-20T12:59:35;4.90;;;4.50;;
13028;SDS011;6581;42.662;23.402;2022-10-20T13:05:40;4.93;;;4.50;;
13028;SDS011;6581;42.662;23.402;2022-10-20T13:14:14;5.57;;;4.32;;
13028;SDS011;6581;42.662;23.402;2022-10-20T13:17:23;6.10;;;4.00;;
13028;SDS011;6581;42.662;23.402;2022-10-20T13:19:56;4.63;;;4.22;;
13028;SDS011;6581;42.662;23.402;2022-10-20T13:22:31;5.70;;;4.50;;
13028;SDS011;6581;42.662;23.402;2022-10-20T13:25:04;7.28;;;4.30;;
13028;SDS011;6581;42.662;23.402;2022-10-20T13:27:38;5.47;;;4.10;;
13028;SDS011;6581;42.662;23.402;2022-10-20T13:30:08;5.22;;;4.63;;
13028;SDS011;6581;42.662;23.402;2022-10-20T13:32:45;5.05;;;4.60;;
13028;SDS011;6581;42.662;23.402;2022-10-20T13:35:20;5.27;;;4.60;;
13028;SDS011;6581;42.662;23.402;2022-10-20T13:37:55;4.25;;;3.95;;
13028;SDS011;6581;42.662;23.402;2022-10-20T13:40:26;5.00;;;4.53;;
13028;SDS011;6581;42.662;23.402;2022-10-20T13:43:07;6.60;;;4.68;;
13028;SDS011;6581;42.662;23.402;2022-10-20T13:45:53;6.53;;;4.30;;
13028;SDS011;6581;42.662;23.402;2022-10-20T13:48:35;5.22;;;4.10;;
13028;SDS011;6581;42.662;23.402;2022-10-20T13:51:12;5.27;;;4.00;;
13028;SDS011;6581;42.662;23.402;2022-10-20T13:53:44;4.88;;;4.47;;
13028;SDS011;6581;42.662;23.402;2022-10-20T13:56:18;5.45;;;4.22;;
13028;SDS011;6581;42.662;23.402;2022-10-20T13:58:56;4.55;;;4.15;;
13028;SDS011;6581;42.662;23.402;2022-10-20T14:01:26;5.38;;;4.18;;
13028;SDS011;6581;42.662;23.402;2022-10-20T14:03:55;6.10;;;4.18;;
13028;SDS011;6581;42.662;23.402;2022-10-20T14:06:29;5.53;;;4.50;;
13028;SDS011;6581;42.662;23.402;2022-10-20T14:08:58;4.80;;;4.07;;
13028;SDS011;6581;42.662;23.402;2022-10-20T14:11:36;4.53;;;4.07;;
13028;SDS011;6581;42.662;23.402;2022-10-20T14:14:05;4.88;;;4.40;;
13028;SDS011;6581;42.662;23.402;2022-10-20T14:17:00;4.07;;;3.65;;
13028;SDS011;6581;42.662;23.402;2022-10-20T14:19:28;3.97;;;3.67;;
13028;SDS011;6581;42.662;23.402;2022-10-20T14:22:05;5.28;;;3.90;;
13028;SDS011;6581;42.662;23.402;2022-10-20T14:24:39;4.32;;;3.67;;
13028;SDS011;6581;42.662;23.402;2022-10-20T14:27:12;4.50;;;3.78;;
13028;SDS011;6581;42.662;23.402;2022-10-20T14:29:41;4.78;;;3.83;;
13028;SDS011;6581;42.662;23.402;2022-10-20T14:32:37;4.22;;;3.83;;
13028;SDS011;6581;42.662;23.402;2022-10-20T14:35:13;5.00;;;3.83;;
13028;SDS011;6581;42.662;23.402;2022-10-20T14:37:45;5.05;;;3.70;;
13028;SDS011;6581;42.662;23.402;2022-10-20T14:40:19;5.07;;;4.18;;
13028;SDS011;6581;42.662;23.402;2022-10-20T14:42:48;4.13;;;3.72;;
13028;SDS011;6581;42.662;23.402;2022-10-20T14:45:17;4.53;;;3.80;;
13028;SDS011;6581;42.662;23.402;2022-10-20T14:47:48;8.00;;;4.13;;
13028;SDS011;6581;42.662;23.402;2022-10-20T14:50:20;4.90;;;3.47;;
13028;SDS011;6581;42.662;23.402;2022-10-20T14:52:50;4.57;;;4.00;;
13028;SDS011;6581;42.662;23.402;2022-10-20T14:55:31;7.22;;;4.30;;
13028;SDS011;6581;42.662;23.402;2022-10-20T14:57:59;5.22;;;3.80;;
13028;SDS011;6581;42.662;23.402;2022-10-20T15:00:28;6.07;;;4.00;;
13028;SDS011;6581;42.662;23.402;2022-10-20T15:03:00;4.05;;;3.70;;
13028;SDS011;6581;42.662;23.402;2022-10-20T15:05:32;5.60;;;4.40;;
13028;SDS011;6581;42.662;23.402;2022-10-20T15:08:09;4.88;;;4.35;;
13028;SDS011;6581;42.662;23.402;2022-10-20T15:10:42;6.75;;;4.25;;
13028;SDS011;6581;42.662;23.402;2022-10-20T15:13:18;6.03;;;4.10;;
13028;SDS011;6581;42.662;23.402;2022-10-20T15:15:47;7.35;;;4.40;;
13028;SDS011;6581;42.662;23.402;2022-10-20T15:18:16;6.00;;;5.07;;
13028;SDS011;6581;42.662;23.402;2022-10-20T15:20:45;8.43;;;6.05;;
13028;SDS011;6581;42.662;23.402;2022-10-20T15:23:15;6.45;;;5.80;;
13028;SDS011;6581;42.662;23.402;2022-10-20T15:25:47;6.68;;;5.47;;
13028;SDS011;6581;42.662;23.402;2022-10-20T15:28:28;7.32;;;4.07;;
13028;SDS011;6581;42.662;23.402;2022-10-20T15:31:05;6.63;;;4.20;;
13028;SDS011;6581;42.662;23.402;2022-10-20T15:33:42;8.65;;;5.38;;